createdAt,value
2016-12-28T00:00:21.633Z,1037.26
2016-12-28T00:00:47.775Z,1037.23
2016-12-28T00:01:13.896Z,1037.25
2016-12-28T00:01:40.001Z,1037.2
2016-12-28T00:02:06.110Z,1037.23
2016-12-28T00:02:32.235Z,1037.24
2016-12-28T00:02:58.343Z,1037.24
2016-12-28T00:03:24.453Z,1037.22
2016-12-28T00:03:50.576Z,1037.22
2016-12-28T00:04:16.741Z,1037.23
2016-12-28T00:04:42.842Z,1037.2
2016-12-28T00:05:08.962Z,1037.22
2016-12-28T00:05:35.084Z,1037.23
2016-12-28T00:06:01.191Z,1037.21
2016-12-28T00:06:27.309Z,1037.22
2016-12-28T00:06:53.413Z,1037.23
2016-12-28T00:07:19.539Z,1037.23
2016-12-28T00:07:45.655Z,1037.26
2016-12-28T00:08:11.760Z,1037.26
2016-12-28T00:08:37.879Z,1037.27
2016-12-28T00:09:03.987Z,1037.26
2016-12-28T00:09:30.098Z,1037.28
2016-12-28T00:09:56.218Z,1037.26
2016-12-28T00:10:22.340Z,1037.29
2016-12-28T00:10:48.446Z,1037.26
2016-12-28T00:11:14.562Z,1037.3
2016-12-28T00:11:40.685Z,1037.33
2016-12-28T00:12:06.790Z,1037.28
2016-12-28T00:12:32.896Z,1037.29
2016-12-28T00:12:59.023Z,1037.36
2016-12-28T00:13:25.125Z,1037.34
2016-12-28T00:13:51.237Z,1037.36
2016-12-28T00:14:17.357Z,1037.37
2016-12-28T00:14:43.470Z,1037.4
2016-12-28T00:15:09.577Z,1037.36
2016-12-28T00:15:35.703Z,1037.39
2016-12-28T00:16:01.817Z,1037.34
2016-12-28T00:16:27.928Z,1037.35
2016-12-28T00:16:54.043Z,1037.35
2016-12-28T00:17:20.171Z,1037.35
2016-12-28T00:17:46.285Z,1037.32
2016-12-28T00:18:12.394Z,1037.31
2016-12-28T00:18:38.498Z,1037.31
2016-12-28T00:19:04.620Z,1037.33
2016-12-28T00:19:30.732Z,1037.28
2016-12-28T00:19:56.842Z,1037.3
2016-12-28T00:20:22.959Z,1037.3
2016-12-28T00:20:49.082Z,1037.26
2016-12-28T00:21:15.188Z,1037.28
2016-12-28T00:21:41.301Z,1037.3
2016-12-28T00:22:07.424Z,1037.3
2016-12-28T00:22:33.529Z,1037.33
2016-12-28T00:22:59.639Z,1037.31
2016-12-28T00:23:25.750Z,1037.32
2016-12-28T00:23:51.866Z,1037.31
2016-12-28T00:24:17.992Z,1037.33
2016-12-28T00:24:44.092Z,1037.3
2016-12-28T00:25:10.209Z,1037.32
2016-12-28T00:25:36.325Z,1037.31
2016-12-28T00:26:02.431Z,1037.32
2016-12-28T00:26:28.546Z,1037.33
2016-12-28T00:26:54.661Z,1037.33
2016-12-28T00:27:20.771Z,1037.33
2016-12-28T00:27:46.878Z,1037.31
2016-12-28T00:28:12.998Z,1037.33
2016-12-28T00:28:39.109Z,1037.37
2016-12-28T00:29:05.243Z,1037.33
2016-12-28T00:29:31.338Z,1037.35
2016-12-28T00:29:57.444Z,1037.35
2016-12-28T00:30:23.572Z,1037.39
2016-12-28T00:30:49.678Z,1037.37
2016-12-28T00:31:15.787Z,1037.41
2016-12-28T00:31:41.907Z,1037.38
2016-12-28T00:32:08.022Z,1037.41
2016-12-28T00:32:34.127Z,1037.39
2016-12-28T00:33:00.247Z,1037.4
2016-12-28T00:33:26.361Z,1037.4
2016-12-28T00:33:52.471Z,1037.43
2016-12-28T00:34:18.586Z,1037.42
2016-12-28T00:34:44.741Z,1037.42
2016-12-28T00:35:10.860Z,1037.41
2016-12-28T00:35:36.972Z,1037.43
2016-12-28T00:36:03.076Z,1037.45
2016-12-28T00:36:29.206Z,1037.48
2016-12-28T00:36:55.321Z,1037.42
2016-12-28T00:37:21.430Z,1037.49
2016-12-28T00:37:47.543Z,1037.47
2016-12-28T00:38:13.664Z,1037.49
2016-12-28T00:38:39.768Z,1037.51
2016-12-28T00:39:05.886Z,1037.47
2016-12-28T00:39:32.012Z,1037.46
2016-12-28T00:39:58.114Z,1037.51
2016-12-28T00:40:24.234Z,1037.53
2016-12-28T00:40:50.345Z,1037.51
2016-12-28T00:41:16.467Z,1037.47
2016-12-28T00:41:42.592Z,1037.5
2016-12-28T00:42:08.693Z,1037.55
2016-12-28T00:42:34.807Z,1037.55
2016-12-28T00:43:00.959Z,1037.52
2016-12-28T00:43:27.068Z,1037.54
2016-12-28T00:43:53.179Z,1037.52
2016-12-28T00:44:19.301Z,1037.54
2016-12-28T00:44:45.408Z,1037.52
2016-12-28T00:45:11.508Z,1037.53
2016-12-28T00:45:37.633Z,1037.52
2016-12-28T00:46:03.750Z,1037.55
2016-12-28T00:46:29.873Z,1037.56
2016-12-28T00:46:55.974Z,1037.54
2016-12-28T00:47:22.087Z,1037.54
2016-12-28T00:47:48.206Z,1037.51
2016-12-28T00:48:14.314Z,1037.54
2016-12-28T00:48:40.420Z,1037.55
2016-12-28T00:49:06.538Z,1037.58
2016-12-28T00:49:32.647Z,1037.6
2016-12-28T00:49:58.752Z,1037.56
2016-12-28T00:50:24.902Z,1037.54
2016-12-28T00:50:51.018Z,1037.58
2016-12-28T00:51:17.131Z,1037.59
2016-12-28T00:51:43.272Z,1037.56
2016-12-28T00:52:09.382Z,1037.55
2016-12-28T00:52:35.503Z,1037.57
2016-12-28T00:53:01.619Z,1037.58
2016-12-28T00:53:27.727Z,1037.55
2016-12-28T00:53:53.850Z,1037.58
2016-12-28T00:54:19.964Z,1037.56
2016-12-28T00:54:46.073Z,1037.53
2016-12-28T00:55:12.193Z,1037.54
2016-12-28T00:55:38.319Z,1037.52
2016-12-28T00:56:04.420Z,1037.52
2016-12-28T00:56:30.532Z,1037.54
2016-12-28T00:56:56.657Z,1037.5
2016-12-28T00:57:22.765Z,1037.55
2016-12-28T00:57:48.875Z,1037.52
2016-12-28T00:58:14.999Z,1037.5
2016-12-28T00:58:41.102Z,1037.53
2016-12-28T00:59:07.210Z,1037.47
2016-12-28T00:59:33.335Z,1037.49
2016-12-28T00:59:59.446Z,1037.48
2016-12-28T01:00:25.555Z,1037.52
2016-12-28T01:00:51.673Z,1037.5
2016-12-28T01:01:17.786Z,1037.53
2016-12-28T01:01:43.888Z,1037.48
2016-12-28T01:02:10.011Z,1037.48
2016-12-28T01:02:36.111Z,1037.53
2016-12-28T01:03:02.237Z,1037.5
2016-12-28T01:03:28.343Z,1037.49
2016-12-28T01:03:54.450Z,1037.49
2016-12-28T01:04:20.568Z,1037.47
2016-12-28T01:04:46.681Z,1037.5
2016-12-28T01:05:12.790Z,1037.51
2016-12-28T01:05:38.906Z,1037.53
2016-12-28T01:06:05.020Z,1037.51
2016-12-28T01:06:31.122Z,1037.53
2016-12-28T01:06:57.239Z,1037.56
2016-12-28T01:07:23.361Z,1037.6
2016-12-28T01:07:49.466Z,1037.59
2016-12-28T01:08:15.584Z,1037.53
2016-12-28T01:08:41.689Z,1037.54
2016-12-28T01:09:07.843Z,1037.58
2016-12-28T01:09:33.964Z,1037.56
2016-12-28T01:10:00.060Z,1037.56
2016-12-28T01:10:26.172Z,1037.51
2016-12-28T01:10:52.296Z,1037.51
2016-12-28T01:11:18.403Z,1037.52
2016-12-28T01:11:44.515Z,1037.51
2016-12-28T01:12:10.637Z,1037.48
2016-12-28T01:12:36.748Z,1037.51
2016-12-28T01:13:02.847Z,1037.46
2016-12-28T01:13:28.966Z,1037.49
2016-12-28T01:13:55.083Z,1037.48
2016-12-28T01:14:21.202Z,1037.47
2016-12-28T01:14:47.302Z,1037.48
2016-12-28T01:15:13.409Z,1037.46
2016-12-28T01:15:39.538Z,1037.45
2016-12-28T01:16:05.644Z,1037.48
2016-12-28T01:16:31.753Z,1037.46
2016-12-28T01:16:57.880Z,1037.43
2016-12-28T01:17:23.989Z,1037.42
2016-12-28T01:17:50.095Z,1037.41
2016-12-28T01:18:16.220Z,1037.38
2016-12-28T01:18:42.343Z,1037.38
2016-12-28T01:19:08.450Z,1037.37
2016-12-28T01:19:34.560Z,1037.36
2016-12-28T01:20:00.698Z,1037.37
2016-12-28T01:20:26.824Z,1037.35
2016-12-28T01:20:52.935Z,1037.35
2016-12-28T01:21:19.039Z,1037.31
2016-12-28T01:21:45.165Z,1037.32
2016-12-28T01:22:11.283Z,1037.27
2016-12-28T01:22:37.384Z,1037.32
2016-12-28T01:23:03.506Z,1037.32
2016-12-28T01:23:29.633Z,1037.33
2016-12-28T01:23:55.730Z,1037.35
2016-12-28T01:24:21.850Z,1037.34
2016-12-28T01:24:47.962Z,1037.31
2016-12-28T01:25:14.078Z,1037.35
2016-12-28T01:25:40.224Z,1037.35
2016-12-28T01:26:06.327Z,1037.35
2016-12-28T01:26:32.453Z,1037.37
2016-12-28T01:26:58.579Z,1037.39
2016-12-28T01:27:24.678Z,1037.39
2016-12-28T01:27:50.798Z,1037.4
2016-12-28T01:28:16.917Z,1037.42
2016-12-28T01:28:43.023Z,1037.4
2016-12-28T01:29:09.133Z,1037.41
2016-12-28T01:29:35.262Z,1037.39
2016-12-28T01:30:01.364Z,1037.36
2016-12-28T01:30:27.481Z,1037.36
2016-12-28T01:30:53.584Z,1037.37
2016-12-28T01:31:19.703Z,1037.35
2016-12-28T01:31:45.823Z,1037.35
2016-12-28T01:32:11.927Z,1037.32
2016-12-28T01:32:38.038Z,1037.31
2016-12-28T01:33:04.190Z,1037.29
2016-12-28T01:33:30.300Z,1037.29
2016-12-28T01:33:56.409Z,1037.26
2016-12-28T01:34:22.536Z,1037.27
2016-12-28T01:34:48.651Z,1037.27
2016-12-28T01:35:14.787Z,1037.29
2016-12-28T01:35:40.907Z,1037.28
2016-12-28T01:36:07.018Z,1037.26
2016-12-28T01:36:33.142Z,1037.24
2016-12-28T01:36:59.249Z,1037.27
2016-12-28T01:37:25.352Z,1037.25
2016-12-28T01:37:51.482Z,1037.23
2016-12-28T01:38:17.595Z,1037.28
2016-12-28T01:38:43.695Z,1037.21
2016-12-28T01:39:09.819Z,1037.27
2016-12-28T01:39:35.938Z,1037.31
2016-12-28T01:40:02.041Z,1037.29
2016-12-28T01:40:28.156Z,1037.28
2016-12-28T01:40:54.275Z,1037.28
2016-12-28T01:41:20.375Z,1037.27
2016-12-28T01:41:46.489Z,1037.22
2016-12-28T01:42:12.640Z,1037.21
2016-12-28T01:42:38.747Z,1037.21
2016-12-28T01:43:04.856Z,1037.18
2016-12-28T01:43:30.984Z,1037.16
2016-12-28T01:43:57.091Z,1037.17
2016-12-28T01:44:23.197Z,1037.13
2016-12-28T01:44:49.320Z,1037.15
2016-12-28T01:45:15.434Z,1037.1
2016-12-28T01:45:41.542Z,1037.1
2016-12-28T01:46:07.662Z,1037.18
2016-12-28T01:46:33.771Z,1037.16
2016-12-28T01:46:59.880Z,1037.19
2016-12-28T01:47:25.994Z,1037.2
2016-12-28T01:47:52.098Z,1037.22
2016-12-28T01:48:18.224Z,1037.15
2016-12-28T01:48:44.335Z,1037.23
2016-12-28T01:49:10.436Z,1037.22
2016-12-28T01:49:36.566Z,1037.22
2016-12-28T01:50:02.686Z,1037.19
2016-12-28T01:50:28.794Z,1037.19
2016-12-28T01:50:54.907Z,1037.21
2016-12-28T01:51:21.036Z,1037.25
2016-12-28T01:51:47.137Z,1037.23
2016-12-28T01:52:13.251Z,1037.22
2016-12-28T01:52:39.363Z,1037.22
2016-12-28T01:53:05.481Z,1037.2
2016-12-28T01:53:31.589Z,1037.21
2016-12-28T01:53:57.698Z,1037.21
2016-12-28T01:54:23.812Z,1037.19
2016-12-28T01:54:49.937Z,1037.21
2016-12-28T01:55:16.033Z,1037.24
2016-12-28T01:55:42.150Z,1037.25
2016-12-28T01:56:08.270Z,1037.24
2016-12-28T01:56:34.377Z,1037.28
2016-12-28T01:57:00.487Z,1037.27
2016-12-28T01:57:26.608Z,1037.28
2016-12-28T01:57:52.709Z,1037.25
2016-12-28T01:58:18.828Z,1037.31
2016-12-28T01:58:44.936Z,1037.23
2016-12-28T01:59:11.049Z,1037.27
2016-12-28T01:59:37.170Z,1037.29
2016-12-28T02:00:03.273Z,1037.27
2016-12-28T02:00:29.431Z,1037.25
2016-12-28T02:00:55.555Z,1037.29
2016-12-28T02:01:21.669Z,1037.21
2016-12-28T02:01:47.779Z,1037.26
2016-12-28T02:02:13.901Z,1037.22
2016-12-28T02:02:40.013Z,1037.28
2016-12-28T02:03:06.123Z,1037.26
2016-12-28T02:03:32.244Z,1037.28
2016-12-28T02:03:58.352Z,1037.28
2016-12-28T02:04:24.474Z,1037.25
2016-12-28T02:04:50.585Z,1037.26
2016-12-28T02:05:16.693Z,1037.26
2016-12-28T02:05:42.815Z,1037.29
2016-12-28T02:06:08.929Z,1037.27
2016-12-28T02:06:35.036Z,1037.3
2016-12-28T02:07:01.155Z,1037.28
2016-12-28T02:07:27.271Z,1037.31
2016-12-28T02:07:53.379Z,1037.28
2016-12-28T02:08:19.496Z,1037.27
2016-12-28T02:08:45.614Z,1037.28
2016-12-28T02:09:11.728Z,1037.29
2016-12-28T02:09:37.841Z,1037.28
2016-12-28T02:10:03.944Z,1037.29
2016-12-28T02:10:30.068Z,1037.29
2016-12-28T02:10:56.178Z,1037.3
2016-12-28T02:11:22.284Z,1037.3
2016-12-28T02:11:48.398Z,1037.28
2016-12-28T02:12:14.520Z,1037.28
2016-12-28T02:12:40.617Z,1037.29
2016-12-28T02:13:06.733Z,1037.24
2016-12-28T02:13:32.849Z,1037.27
2016-12-28T02:13:58.960Z,1037.21
2016-12-28T02:14:25.072Z,1037.25
2016-12-28T02:14:51.181Z,1037.24
2016-12-28T02:15:17.307Z,1037.26
2016-12-28T02:15:43.431Z,1037.21
2016-12-28T02:16:09.531Z,1037.19
2016-12-28T02:16:35.651Z,1037.19
2016-12-28T02:17:01.772Z,1037.13
2016-12-28T02:17:27.879Z,1037.16
2016-12-28T02:17:53.986Z,1037.16
2016-12-28T02:18:20.113Z,1037.18
2016-12-28T02:18:46.253Z,1037.19
2016-12-28T02:19:12.362Z,1037.18
2016-12-28T02:19:38.483Z,1037.2
2016-12-28T02:20:04.591Z,1037.17
2016-12-28T02:20:30.717Z,1037.19
2016-12-28T02:20:56.824Z,1037.23
2016-12-28T02:21:22.938Z,1037.24
2016-12-28T02:21:49.057Z,1037.21
2016-12-28T02:22:15.166Z,1037.19
2016-12-28T02:22:41.273Z,1037.2
2016-12-28T02:23:07.396Z,1037.25
2016-12-28T02:23:33.510Z,1037.24
2016-12-28T02:23:59.611Z,1037.19
2016-12-28T02:24:25.734Z,1037.19
2016-12-28T02:24:51.848Z,1037.19
2016-12-28T02:25:17.953Z,1037.18
2016-12-28T02:25:44.074Z,1037.19
2016-12-28T02:26:10.227Z,1037.15
2016-12-28T02:26:36.325Z,1037.19
2016-12-28T02:27:02.437Z,1037.17
2016-12-28T02:27:28.558Z,1037.18
2016-12-28T02:27:54.658Z,1037.18
2016-12-28T02:28:20.772Z,1037.21
2016-12-28T02:28:46.894Z,1037.17
2016-12-28T02:29:12.999Z,1037.18
2016-12-28T02:29:39.099Z,1037.19
2016-12-28T02:30:05.227Z,1037.16
2016-12-28T02:30:31.338Z,1037.22
2016-12-28T02:30:57.493Z,1037.23
2016-12-28T02:31:23.613Z,1037.22
2016-12-28T02:31:49.715Z,1037.19
2016-12-28T02:32:15.840Z,1037.22
2016-12-28T02:32:41.948Z,1037.23
2016-12-28T02:33:08.056Z,1037.26
2016-12-28T02:33:34.182Z,1037.28
2016-12-28T02:34:00.296Z,1037.23
2016-12-28T02:34:26.397Z,1037.25
2016-12-28T02:34:52.523Z,1037.24
2016-12-28T02:35:18.637Z,1037.26
2016-12-28T02:35:44.742Z,1037.26
2016-12-28T02:36:10.854Z,1037.18
2016-12-28T02:36:36.974Z,1037.21
2016-12-28T02:37:03.084Z,1037.17
2016-12-28T02:37:29.199Z,1037.18
2016-12-28T02:37:55.302Z,1037.2
2016-12-28T02:38:21.420Z,1037.15
2016-12-28T02:38:47.537Z,1037.15
2016-12-28T02:39:13.637Z,1037.13
2016-12-28T02:39:39.761Z,1037.14
2016-12-28T02:40:05.900Z,1037.16
2016-12-28T02:40:31.985Z,1037.15
2016-12-28T02:40:58.094Z,1037.15
2016-12-28T02:41:24.214Z,1037.09
2016-12-28T02:41:50.323Z,1037.1
2016-12-28T02:42:16.438Z,1037.07
2016-12-28T02:42:42.545Z,1037.12
2016-12-28T02:43:08.661Z,1037.11
2016-12-28T02:43:34.787Z,1037.1
2016-12-28T02:44:00.887Z,1037.08
2016-12-28T02:44:27.003Z,1037.14
2016-12-28T02:44:53.123Z,1037.11
2016-12-28T02:45:19.229Z,1037.12
2016-12-28T02:45:45.338Z,1037.08
2016-12-28T02:46:11.460Z,1037.11
2016-12-28T02:46:37.569Z,1037.12
2016-12-28T02:47:03.676Z,1037.11
2016-12-28T02:47:29.797Z,1037.14
2016-12-28T02:47:55.906Z,1037.13
2016-12-28T02:48:22.020Z,1037.13
2016-12-28T02:48:48.129Z,1037.18
2016-12-28T02:49:14.243Z,1037.19
2016-12-28T02:49:40.364Z,1037.15
2016-12-28T02:50:06.467Z,1037.16
2016-12-28T02:50:32.570Z,1037.13
2016-12-28T02:50:58.700Z,1037.1
2016-12-28T02:51:24.809Z,1037.1
2016-12-28T02:51:50.912Z,1037.09
2016-12-28T02:52:17.038Z,1037.1
2016-12-28T02:52:43.145Z,1037.04
2016-12-28T02:53:09.248Z,1037.1
2016-12-28T02:53:35.366Z,1037.07
2016-12-28T02:54:01.474Z,1037.04
2016-12-28T02:54:27.592Z,1037.08
2016-12-28T02:54:53.704Z,1037.1
2016-12-28T02:55:19.807Z,1037.05
2016-12-28T02:55:45.931Z,1037.1
2016-12-28T02:56:12.045Z,1037.09
2016-12-28T02:56:38.148Z,1037.09
2016-12-28T02:57:04.270Z,1037.07
2016-12-28T02:57:30.387Z,1037.09
2016-12-28T02:57:56.490Z,1037.06
2016-12-28T02:58:22.609Z,1037
2016-12-28T02:58:48.731Z,1037.06
2016-12-28T02:59:14.835Z,1037.02
2016-12-28T02:59:40.949Z,1037.02
2016-12-28T03:00:07.056Z,1037.03
2016-12-28T03:00:33.175Z,1037.01
2016-12-28T03:00:59.296Z,1036.98
2016-12-28T03:01:25.394Z,1036.99
2016-12-28T03:01:51.505Z,1037.03
2016-12-28T03:02:17.628Z,1036.98
2016-12-28T03:02:43.731Z,1036.98
2016-12-28T03:03:09.843Z,1036.98
2016-12-28T03:03:35.961Z,1036.97
2016-12-28T03:04:02.069Z,1037
2016-12-28T03:04:28.168Z,1036.99
2016-12-28T03:04:54.324Z,1036.97
2016-12-28T03:05:20.441Z,1036.98
2016-12-28T03:05:46.556Z,1037
2016-12-28T03:06:12.661Z,1037
2016-12-28T03:06:38.766Z,1037.01
2016-12-28T03:07:04.893Z,1036.95
2016-12-28T03:07:31.004Z,1037.01
2016-12-28T03:07:57.109Z,1037.03
2016-12-28T03:08:23.236Z,1037.01
2016-12-28T03:08:49.349Z,1037
2016-12-28T03:09:15.452Z,1037.01
2016-12-28T03:09:41.576Z,1037.04
2016-12-28T03:10:07.693Z,1037.05
2016-12-28T03:10:33.831Z,1037.06
2016-12-28T03:10:59.945Z,1037.05
2016-12-28T03:11:26.064Z,1037.03
2016-12-28T03:11:52.165Z,1037.02
2016-12-28T03:12:18.282Z,1037.06
2016-12-28T03:12:44.408Z,1037.05
2016-12-28T03:13:10.534Z,1037.05
2016-12-28T03:13:36.647Z,1037.03
2016-12-28T03:14:02.764Z,1037
2016-12-28T03:14:28.876Z,1037.01
2016-12-28T03:14:54.974Z,1037.01
2016-12-28T03:15:21.102Z,1036.96
2016-12-28T03:15:47.211Z,1036.99
2016-12-28T03:16:13.326Z,1036.94
2016-12-28T03:16:39.433Z,1036.95
2016-12-28T03:17:05.544Z,1036.99
2016-12-28T03:17:31.666Z,1036.96
2016-12-28T03:17:57.768Z,1036.95
2016-12-28T03:18:23.867Z,1036.98
2016-12-28T03:18:49.992Z,1037
2016-12-28T03:19:16.101Z,1036.99
2016-12-28T03:19:42.203Z,1036.96
2016-12-28T03:20:08.324Z,1037
2016-12-28T03:20:34.441Z,1036.98
2016-12-28T03:21:00.547Z,1037.02
2016-12-28T03:21:26.691Z,1037.01
2016-12-28T03:21:52.800Z,1037.02
2016-12-28T03:22:18.919Z,1037.02
2016-12-28T03:22:45.028Z,1037.03
2016-12-28T03:23:11.135Z,1037
2016-12-28T03:23:37.256Z,1037
2016-12-28T03:24:03.375Z,1036.98
2016-12-28T03:24:29.477Z,1037.01
2016-12-28T03:24:55.598Z,1036.99
2016-12-28T03:25:21.717Z,1036.97
2016-12-28T03:25:47.821Z,1037.01
2016-12-28T03:26:13.936Z,1036.96
2016-12-28T03:26:40.057Z,1036.99
2016-12-28T03:27:06.166Z,1036.94
2016-12-28T03:27:32.276Z,1037
2016-12-28T03:27:58.388Z,1036.95
2016-12-28T03:28:24.507Z,1036.88
2016-12-28T03:28:50.630Z,1036.9
2016-12-28T03:29:16.729Z,1036.92
2016-12-28T03:29:42.837Z,1036.91
2016-12-28T03:30:08.960Z,1036.86
2016-12-28T03:30:35.059Z,1036.85
2016-12-28T03:31:01.176Z,1036.87
2016-12-28T03:31:27.291Z,1036.86
2016-12-28T03:31:53.399Z,1036.83
2016-12-28T03:32:19.508Z,1036.77
2016-12-28T03:32:45.623Z,1036.83
2016-12-28T03:33:11.734Z,1036.8
2016-12-28T03:33:37.854Z,1036.77
2016-12-28T03:34:03.952Z,1036.79
2016-12-28T03:34:30.066Z,1036.73
2016-12-28T03:34:56.182Z,1036.76
2016-12-28T03:35:22.294Z,1036.7
2016-12-28T03:35:48.393Z,1036.76
2016-12-28T03:36:14.572Z,1036.72
2016-12-28T03:36:40.680Z,1036.72
2016-12-28T03:37:06.788Z,1036.71
2016-12-28T03:37:32.906Z,1036.67
2016-12-28T03:37:59.019Z,1036.64
2016-12-28T03:38:25.134Z,1036.69
2016-12-28T03:38:51.272Z,1036.67
2016-12-28T03:39:17.379Z,1036.65
2016-12-28T03:39:43.497Z,1036.65
2016-12-28T03:40:09.609Z,1036.61
2016-12-28T03:40:35.714Z,1036.64
2016-12-28T03:41:01.833Z,1036.59
2016-12-28T03:41:27.950Z,1036.54
2016-12-28T03:41:54.049Z,1036.58
2016-12-28T03:42:23.202Z,1036.54
2016-12-28T03:42:49.327Z,1036.56
2016-12-28T03:43:15.427Z,1036.56
2016-12-28T03:43:41.566Z,1036.56
2016-12-28T03:44:07.678Z,1036.55
2016-12-28T03:44:33.798Z,1036.62
2016-12-28T03:44:59.912Z,1036.58
2016-12-28T03:45:26.013Z,1036.64
2016-12-28T03:45:52.135Z,1036.61
2016-12-28T03:46:18.261Z,1036.62
2016-12-28T03:46:44.358Z,1036.63
2016-12-28T03:47:10.476Z,1036.57
2016-12-28T03:47:36.598Z,1036.63
2016-12-28T03:48:02.700Z,1036.59
2016-12-28T03:48:28.814Z,1036.61
2016-12-28T03:48:54.939Z,1036.57
2016-12-28T03:49:21.052Z,1036.61
2016-12-28T03:49:47.170Z,1036.59
2016-12-28T03:50:13.276Z,1036.57
2016-12-28T03:50:39.389Z,1036.56
2016-12-28T03:51:05.515Z,1036.6
2016-12-28T03:51:31.616Z,1036.55
2016-12-28T03:51:57.726Z,1036.58
2016-12-28T03:52:23.849Z,1036.56
2016-12-28T03:52:49.960Z,1036.6
2016-12-28T03:53:16.065Z,1036.61
2016-12-28T03:53:42.187Z,1036.57
2016-12-28T03:54:08.299Z,1036.56
2016-12-28T03:54:34.399Z,1036.6
2016-12-28T03:55:00.521Z,1036.58
2016-12-28T03:55:26.632Z,1036.58
2016-12-28T03:55:52.741Z,1036.63
2016-12-28T03:56:18.860Z,1036.61
2016-12-28T03:56:44.983Z,1036.66
2016-12-28T03:57:11.084Z,1036.66
2016-12-28T03:57:37.191Z,1036.62
2016-12-28T03:58:03.313Z,1036.67
2016-12-28T03:58:29.420Z,1036.69
2016-12-28T03:58:55.530Z,1036.68
2016-12-28T03:59:21.644Z,1036.7
2016-12-28T03:59:47.757Z,1036.73
2016-12-28T04:00:13.893Z,1036.74
2016-12-28T04:00:40.013Z,1036.74
2016-12-28T04:01:06.128Z,1036.76
2016-12-28T04:01:32.295Z,1036.77
2016-12-28T04:01:58.402Z,1036.76
2016-12-28T04:02:24.514Z,1036.77
2016-12-28T04:02:50.636Z,1036.78
2016-12-28T04:03:16.743Z,1036.76
2016-12-28T04:03:42.850Z,1036.74
2016-12-28T04:04:08.973Z,1036.73
2016-12-28T04:04:35.084Z,1036.73
2016-12-28T04:05:01.195Z,1036.73
2016-12-28T04:05:27.321Z,1036.75
2016-12-28T04:05:53.428Z,1036.75
2016-12-28T04:06:19.540Z,1036.76
2016-12-28T04:06:45.651Z,1036.73
2016-12-28T04:07:11.758Z,1036.7
2016-12-28T04:07:37.881Z,1036.74
2016-12-28T04:08:03.993Z,1036.74
2016-12-28T04:08:30.096Z,1036.76
2016-12-28T04:08:56.219Z,1036.7
2016-12-28T04:09:22.331Z,1036.7
2016-12-28T04:09:48.436Z,1036.74
2016-12-28T04:10:14.549Z,1036.74
2016-12-28T04:10:40.667Z,1036.76
2016-12-28T04:11:06.767Z,1036.76
2016-12-28T04:11:32.882Z,1036.75
2016-12-28T04:11:58.996Z,1036.8
2016-12-28T04:12:25.113Z,1036.8
2016-12-28T04:12:51.224Z,1036.82
2016-12-28T04:13:17.327Z,1036.83
2016-12-28T04:13:43.449Z,1036.81
2016-12-28T04:14:09.572Z,1036.83
2016-12-28T04:14:35.674Z,1036.86
2016-12-28T04:15:01.789Z,1036.8
2016-12-28T04:15:27.906Z,1036.84
2016-12-28T04:15:54.015Z,1036.85
2016-12-28T04:16:20.127Z,1036.81
2016-12-28T04:16:46.241Z,1036.84
2016-12-28T04:17:12.345Z,1036.81
2016-12-28T04:17:38.466Z,1036.81
2016-12-28T04:18:04.574Z,1036.84
2016-12-28T04:18:30.684Z,1036.8
2016-12-28T04:18:56.799Z,1036.84
2016-12-28T04:19:22.909Z,1036.81
2016-12-28T04:19:49.025Z,1036.79
2016-12-28T04:20:15.141Z,1036.77
2016-12-28T04:20:41.247Z,1036.75
2016-12-28T04:21:07.358Z,1036.8
2016-12-28T04:21:33.478Z,1036.76
2016-12-28T04:21:59.593Z,1036.77
2016-12-28T04:22:25.694Z,1036.77
2016-12-28T04:22:51.815Z,1036.77
2016-12-28T04:23:17.924Z,1036.74
2016-12-28T04:23:44.039Z,1036.73
2016-12-28T04:24:10.147Z,1036.66
2016-12-28T04:24:36.258Z,1036.72
2016-12-28T04:25:02.385Z,1036.71
2016-12-28T04:25:28.502Z,1036.74
2016-12-28T04:25:54.607Z,1036.76
2016-12-28T04:26:20.727Z,1036.76
2016-12-28T04:26:46.837Z,1036.72
2016-12-28T04:27:12.945Z,1036.78
2016-12-28T04:27:39.060Z,1036.78
2016-12-28T04:28:05.184Z,1036.76
2016-12-28T04:28:31.284Z,1036.79
2016-12-28T04:28:57.393Z,1036.77
2016-12-28T04:29:23.500Z,1036.73
2016-12-28T04:29:49.615Z,1036.78
2016-12-28T04:30:15.728Z,1036.79
2016-12-28T04:30:41.830Z,1036.83
2016-12-28T04:31:07.953Z,1036.84
2016-12-28T04:31:34.071Z,1036.82
2016-12-28T04:32:00.177Z,1036.8
2016-12-28T04:32:26.288Z,1036.81
2016-12-28T04:32:52.420Z,1036.83
2016-12-28T04:33:18.512Z,1036.84
2016-12-28T04:33:44.622Z,1036.85
2016-12-28T04:34:10.768Z,1036.88
2016-12-28T04:34:36.884Z,1036.88
2016-12-28T04:35:03.002Z,1036.88
2016-12-28T04:35:29.107Z,1036.85
2016-12-28T04:35:55.223Z,1036.82
2016-12-28T04:36:21.341Z,1036.85
2016-12-28T04:36:47.449Z,1036.86
2016-12-28T04:37:13.561Z,1036.82
2016-12-28T04:37:39.678Z,1036.82
2016-12-28T04:38:05.786Z,1036.86
2016-12-28T04:38:31.894Z,1036.82
2016-12-28T04:38:58.014Z,1036.86
2016-12-28T04:39:24.124Z,1036.86
2016-12-28T04:39:50.226Z,1036.86
2016-12-28T04:40:16.349Z,1036.84
2016-12-28T04:40:42.463Z,1036.88
2016-12-28T04:41:08.593Z,1036.86
2016-12-28T04:41:34.705Z,1036.85
2016-12-28T04:42:00.832Z,1036.87
2016-12-28T04:42:26.932Z,1036.87
2016-12-28T04:42:53.049Z,1036.85
2016-12-28T04:43:19.162Z,1036.86
2016-12-28T04:43:45.270Z,1036.89
2016-12-28T04:44:11.381Z,1036.86
2016-12-28T04:44:37.503Z,1036.86
2016-12-28T04:45:03.611Z,1036.85
2016-12-28T04:45:29.728Z,1036.88
2016-12-28T04:45:55.825Z,1036.83
2016-12-28T04:46:21.944Z,1036.84
2016-12-28T04:46:48.067Z,1036.84
2016-12-28T04:47:14.173Z,1036.85
2016-12-28T04:47:40.279Z,1036.89
2016-12-28T04:48:06.402Z,1036.84
2016-12-28T04:48:32.509Z,1036.84
2016-12-28T04:48:58.621Z,1036.82
2016-12-28T04:49:24.739Z,1036.84
2016-12-28T04:49:50.857Z,1036.84
2016-12-28T04:50:16.954Z,1036.83
2016-12-28T04:50:43.076Z,1036.82
2016-12-28T04:51:09.181Z,1036.84
2016-12-28T04:51:35.302Z,1036.86
2016-12-28T04:52:01.415Z,1036.86
2016-12-28T04:52:27.514Z,1036.86
2016-12-28T04:52:53.644Z,1036.85
2016-12-28T04:53:19.775Z,1036.87
2016-12-28T04:53:45.864Z,1036.85
2016-12-28T04:54:11.979Z,1036.84
2016-12-28T04:54:38.090Z,1036.79
2016-12-28T04:55:04.191Z,1036.85
2016-12-28T04:55:30.345Z,1036.86
2016-12-28T04:55:56.469Z,1036.84
2016-12-28T04:56:22.576Z,1036.82
2016-12-28T04:56:48.689Z,1036.82
2016-12-28T04:57:14.789Z,1036.83
2016-12-28T04:57:40.914Z,1036.84
2016-12-28T04:58:07.031Z,1036.81
2016-12-28T04:58:33.134Z,1036.83
2016-12-28T04:58:59.250Z,1036.81
2016-12-28T04:59:25.368Z,1036.84
2016-12-28T04:59:51.474Z,1036.81
2016-12-28T05:00:17.587Z,1036.86
2016-12-28T05:00:43.707Z,1036.84
2016-12-28T05:01:09.810Z,1036.85
2016-12-28T05:01:35.919Z,1036.86
2016-12-28T05:02:02.034Z,1036.86
2016-12-28T05:02:28.153Z,1036.85
2016-12-28T05:02:54.307Z,1036.85
2016-12-28T05:03:20.404Z,1036.86
2016-12-28T05:03:46.519Z,1036.83
2016-12-28T05:04:12.636Z,1036.8
2016-12-28T05:04:38.740Z,1036.81
2016-12-28T05:05:04.852Z,1036.78
2016-12-28T05:05:30.975Z,1036.77
2016-12-28T05:05:57.088Z,1036.78
2016-12-28T05:06:23.192Z,1036.73
2016-12-28T05:06:49.315Z,1036.75
2016-12-28T05:07:15.430Z,1036.74
2016-12-28T05:07:41.549Z,1036.71
2016-12-28T05:08:07.651Z,1036.71
2016-12-28T05:08:33.755Z,1036.72
2016-12-28T05:08:59.879Z,1036.72
2016-12-28T05:09:25.984Z,1036.73
2016-12-28T05:09:52.090Z,1036.72
2016-12-28T05:10:18.211Z,1036.73
2016-12-28T05:10:44.328Z,1036.71
2016-12-28T05:11:10.427Z,1036.72
2016-12-28T05:11:36.553Z,1036.67
2016-12-28T05:12:02.667Z,1036.68
2016-12-28T05:12:28.773Z,1036.76
2016-12-28T05:12:54.891Z,1036.75
2016-12-28T05:13:20.990Z,1036.73
2016-12-28T05:13:47.119Z,1036.76
2016-12-28T05:14:13.228Z,1036.77
2016-12-28T05:14:39.336Z,1036.73
2016-12-28T05:15:05.452Z,1036.75
2016-12-28T05:15:31.565Z,1036.78
2016-12-28T05:15:57.669Z,1036.82
2016-12-28T05:16:23.788Z,1036.82
2016-12-28T05:16:49.913Z,1036.83
2016-12-28T05:17:16.012Z,1036.9